Tiltonsville, Ohio
Current Conditions -  °F | °C
As of 4:53 PM on Sunday 25 Jan 2015 (Local Time) from KHLG Reporting Station
Light Snow Light Snow  
Wind Chill: 28°   Ceiling: 300
Heat Index: 33°   Visibility: 0.75mi
Dew Point: 32°   Wind: 6mph
Humidity: 96%   Direction: 60°ENE
Pressure: 29.75"   Gusts: NA
Location:  40.17°N, 80.7°W
Report Text: KHLG 252153Z 06005KT 3/4SM R03/P6000FT -SN BR OVC003 01/00 A2975 RMK AO2 SNB23 SLP089 P0001 T00060000
Loading
Personal Weather Stations






























Interactive Weather Map New forecast layout! Learn more

10-Day Weather Forecast

Advertisements
Track Severe Weather on mobile